sensor_id;sensor_type;location;lat;lon;timestamp;pressure;altitude;pressure_sealevel;temperature;humidity
59190;BME280;50749;51.636;4.948;2023-06-26T00:00:14;101304.59;;;25.16;53.76
59190;BME280;50749;51.636;4.948;2023-06-26T00:03:00;101324.56;;;25.15;53.72
59190;BME280;50749;51.636;4.948;2023-06-26T00:05:27;101323.00;;;25.14;53.88
59190;BME280;50749;51.636;4.948;2023-06-26T00:07:53;101328.97;;;25.12;53.25
59190;BME280;50749;51.636;4.948;2023-06-26T00:10:19;101327.38;;;25.11;53.74
59190;BME280;50749;51.636;4.948;2023-06-26T00:12:45;101323.00;;;25.10;53.09
59190;BME280;50749;51.636;4.948;2023-06-26T00:15:10;101315.78;;;25.09;53.23
59190;BME280;50749;51.636;4.948;2023-06-26T00:17:37;101323.38;;;25.09;52.68
59190;BME280;50749;51.636;4.948;2023-06-26T00:20:03;101320.97;;;25.07;52.81
59190;BME280;50749;51.636;4.948;2023-06-26T00:22:31;101327.75;;;25.06;53.02
59190;BME280;50749;51.636;4.948;2023-06-26T00:24:56;101324.56;;;25.04;52.68
59190;BME280;50749;51.636;4.948;2023-06-26T00:27:22;101332.94;;;25.04;52.65
59190;BME280;50749;51.636;4.948;2023-06-26T00:29:48;101330.56;;;25.02;52.52
59190;BME280;50749;51.636;4.948;2023-06-26T00:32:14;101328.94;;;25.01;53.11
59190;BME280;50749;51.636;4.948;2023-06-26T00:34:39;101326.13;;;25.01;52.42
59190;BME280;50749;51.636;4.948;2023-06-26T00:37:05;101313.38;;;25.00;52.79
59190;BME280;50749;51.636;4.948;2023-06-26T00:39:31;101316.97;;;25.01;52.43
59190;BME280;50749;51.636;4.948;2023-06-26T00:41:58;101323.78;;;25.00;52.62
59190;BME280;50749;51.636;4.948;2023-06-26T00:44:23;101332.16;;;25.00;53.04
59190;BME280;50749;51.636;4.948;2023-06-26T00:46:49;101331.34;;;24.99;52.53
59190;BME280;50749;51.636;4.948;2023-06-26T00:49:15;101334.53;;;24.98;52.39
59190;BME280;50749;51.636;4.948;2023-06-26T00:51:41;101329.31;;;24.96;52.89
59190;BME280;50749;51.636;4.948;2023-06-26T00:54:07;101331.72;;;24.94;52.24
59190;BME280;50749;51.636;4.948;2023-06-26T00:56:34;101329.31;;;24.93;52.77
59190;BME280;50749;51.636;4.948;2023-06-26T00:59:00;101333.34;;;24.92;52.54
59190;BME280;50749;51.636;4.948;2023-06-26T01:01:26;101345.31;;;24.92;52.49
59190;BME280;50749;51.636;4.948;2023-06-26T01:03:53;101358.50;;;24.92;52.23
59190;BME280;50749;51.636;4.948;2023-06-26T01:06:22;101354.09;;;24.91;52.46
59190;BME280;50749;51.636;4.948;2023-06-26T01:08:49;101358.06;;;24.90;52.41
59190;BME280;50749;51.636;4.948;2023-06-26T01:11:15;101360.06;;;24.89;52.38
59190;BME280;50749;51.636;4.948;2023-06-26T01:13:42;101357.66;;;24.88;52.44
59190;BME280;50749;51.636;4.948;2023-06-26T01:16:11;101354.88;;;24.88;52.62
59190;BME280;50749;51.636;4.948;2023-06-26T01:18:38;101362.84;;;24.85;52.07
59190;BME280;50749;51.636;4.948;2023-06-26T01:21:09;101364.88;;;24.85;52.57
59190;BME280;50749;51.636;4.948;2023-06-26T01:23:47;101356.88;;;24.83;52.09
59190;BME280;50749;51.636;4.948;2023-06-26T01:28:43;101371.25;;;24.82;52.06
59190;BME280;50749;51.636;4.948;2023-06-26T01:31:10;101372.41;;;24.81;51.53
59190;BME280;50749;51.636;4.948;2023-06-26T01:33:36;101360.44;;;24.80;52.15
59190;BME280;50749;51.636;4.948;2023-06-26T01:36:04;101367.66;;;24.81;52.12
59190;BME280;50749;51.636;4.948;2023-06-26T01:38:29;101358.84;;;24.79;51.91
59190;BME280;50749;51.636;4.948;2023-06-26T01:40:55;101361.25;;;24.81;51.56
59190;BME280;50749;51.636;4.948;2023-06-26T01:46:18;101357.25;;;24.78;51.84
59190;BME280;50749;51.636;4.948;2023-06-26T01:48:51;101368.00;;;24.76;52.17
59190;BME280;50749;51.636;4.948;2023-06-26T01:51:26;101368.00;;;24.76;51.54
59190;BME280;50749;51.636;4.948;2023-06-26T01:53:54;101374.81;;;24.75;51.84
59190;BME280;50749;51.636;4.948;2023-06-26T01:56:23;101371.59;;;24.73;51.65
59190;BME280;50749;51.636;4.948;2023-06-26T01:58:49;101376.00;;;24.74;52.29
59190;BME280;50749;51.636;4.948;2023-06-26T02:01:20;101365.19;;;24.73;51.96
59190;BME280;50749;51.636;4.948;2023-06-26T02:03:46;101374.41;;;24.73;52.20
59190;BME280;50749;51.636;4.948;2023-06-26T02:06:12;101368.38;;;24.71;51.62
59190;BME280;50749;51.636;4.948;2023-06-26T02:08:37;101367.59;;;24.71;52.02
59190;BME280;50749;51.636;4.948;2023-06-26T02:11:03;101370.38;;;24.71;52.30
59190;BME280;50749;51.636;4.948;2023-06-26T02:13:29;101372.38;;;24.70;52.34
59190;BME280;50749;51.636;4.948;2023-06-26T02:15:55;101366.78;;;24.70;52.15
59190;BME280;50749;51.636;4.948;2023-06-26T02:18:20;101375.19;;;24.70;51.96
59190;BME280;50749;51.636;4.948;2023-06-26T02:20:50;101379.97;;;24.70;52.14
59190;BME280;50749;51.636;4.948;2023-06-26T02:23:15;101383.56;;;24.70;52.17
59190;BME280;50749;51.636;4.948;2023-06-26T02:25:41;101390.75;;;24.71;51.82
59190;BME280;50749;51.636;4.948;2023-06-26T02:28:07;101386.75;;;24.69;52.41
59190;BME280;50749;51.636;4.948;2023-06-26T02:30:32;101391.16;;;24.70;52.00
59190;BME280;50749;51.636;4.948;2023-06-26T02:32:58;101393.97;;;24.70;52.00
59190;BME280;50749;51.636;4.948;2023-06-26T02:35:24;101379.97;;;24.70;52.03
59190;BME280;50749;51.636;4.948;2023-06-26T02:37:50;101390.34;;;24.69;51.98
59190;BME280;50749;51.636;4.948;2023-06-26T02:40:16;101402.34;;;24.70;52.49
59190;BME280;50749;51.636;4.948;2023-06-26T02:42:41;101399.56;;;24.70;52.42
59190;BME280;50749;51.636;4.948;2023-06-26T02:45:08;101399.94;;;24.68;52.11
59190;BME280;50749;51.636;4.948;2023-06-26T02:47:34;101412.31;;;24.67;52.68
59190;BME280;50749;51.636;4.948;2023-06-26T02:49:59;101406.72;;;24.67;52.71
59190;BME280;50749;51.636;4.948;2023-06-26T02:52:25;101413.47;;;24.66;52.52
59190;BME280;50749;51.636;4.948;2023-06-26T02:54:51;101423.47;;;24.67;52.24
59190;BME280;50749;51.636;4.948;2023-06-26T02:57:16;101417.91;;;24.67;52.85
59190;BME280;50749;51.636;4.948;2023-06-26T02:59:42;101412.72;;;24.69;52.73
59190;BME280;50749;51.636;4.948;2023-06-26T03:02:08;101417.50;;;24.69;52.67
59190;BME280;50749;51.636;4.948;2023-06-26T03:04:34;101416.72;;;24.68;52.70
59190;BME280;50749;51.636;4.948;2023-06-26T03:07:03;101416.28;;;24.66;52.79
59190;BME280;50749;51.636;4.948;2023-06-26T03:09:30;101415.50;;;24.65;52.83
59190;BME280;50749;51.636;4.948;2023-06-26T03:11:55;101410.69;;;24.66;53.09
59190;BME280;50749;51.636;4.948;2023-06-26T03:14:21;101402.31;;;24.66;52.67
59190;BME280;50749;51.636;4.948;2023-06-26T03:16:47;101409.91;;;24.65;52.60
59190;BME280;50749;51.636;4.948;2023-06-26T03:19:13;101404.31;;;24.65;53.00
59190;BME280;50749;51.636;4.948;2023-06-26T03:21:38;101408.69;;;24.63;53.21
59190;BME280;50749;51.636;4.948;2023-06-26T03:24:05;101415.47;;;24.62;52.98
59190;BME280;50749;51.636;4.948;2023-06-26T03:26:30;101407.88;;;24.62;52.87
59190;BME280;50749;51.636;4.948;2023-06-26T03:28:56;101417.47;;;24.61;53.12
59190;BME280;50749;51.636;4.948;2023-06-26T03:31:22;101412.28;;;24.60;53.17
59190;BME280;50749;51.636;4.948;2023-06-26T03:33:48;101422.25;;;24.61;53.15
59190;BME280;50749;51.636;4.948;2023-06-26T03:36:13;101430.63;;;24.61;53.01
59190;BME280;50749;51.636;4.948;2023-06-26T03:38:39;101419.44;;;24.61;53.15
59190;BME280;50749;51.636;4.948;2023-06-26T03:41:05;101429.03;;;24.60;52.97
59190;BME280;50749;51.636;4.948;2023-06-26T03:43:31;101432.63;;;24.60;53.13
59190;BME280;50749;51.636;4.948;2023-06-26T03:45:56;101429.03;;;24.60;53.36
59190;BME280;50749;51.636;4.948;2023-06-26T03:48:22;101442.19;;;24.59;53.06
59190;BME280;50749;51.636;4.948;2023-06-26T03:50:48;101444.19;;;24.59;53.48
59190;BME280;50749;51.636;4.948;2023-06-26T03:53:14;101449.78;;;24.59;52.96
59190;BME280;50749;51.636;4.948;2023-06-26T03:55:40;101441.78;;;24.57;53.25
59190;BME280;50749;51.636;4.948;2023-06-26T03:58:06;101450.97;;;24.58;53.57
59190;BME280;50749;51.636;4.948;2023-06-26T04:00:31;101448.16;;;24.58;53.11
59190;BME280;50749;51.636;4.948;2023-06-26T04:02:58;101452.19;;;24.57;53.24
59190;BME280;50749;51.636;4.948;2023-06-26T04:05:23;101450.97;;;24.58;53.22
59190;BME280;50749;51.636;4.948;2023-06-26T04:07:50;101459.34;;;24.58;53.11
59190;BME280;50749;51.636;4.948;2023-06-26T04:10:16;101452.19;;;24.57;53.33
59190;BME280;50749;51.636;4.948;2023-06-26T04:12:42;101461.34;;;24.57;52.91
59190;BME280;50749;51.636;4.948;2023-06-26T04:15:08;101463.34;;;24.57;53.43
59190;BME280;50749;51.636;4.948;2023-06-26T04:17:34;101461.75;;;24.56;52.96
59190;BME280;50749;51.636;4.948;2023-06-26T04:19:59;101465.38;;;24.56;53.15
59190;BME280;50749;51.636;4.948;2023-06-26T04:22:25;101466.53;;;24.55;53.45
59190;BME280;50749;51.636;4.948;2023-06-26T04:24:51;101470.13;;;24.56;52.98
59190;BME280;50749;51.636;4.948;2023-06-26T04:27:18;101476.56;;;24.60;53.26
59190;BME280;50749;51.636;4.948;2023-06-26T04:29:43;101476.13;;;24.58;53.87
59190;BME280;50749;51.636;4.948;2023-06-26T04:32:09;101484.81;;;24.49;53.36
59190;BME280;50749;51.636;4.948;2023-06-26T04:34:35;101487.97;;;24.40;53.12
59190;BME280;50749;51.636;4.948;2023-06-26T04:37:02;101493.13;;;24.35;53.20
59190;BME280;50749;51.636;4.948;2023-06-26T04:39:30;101480.28;;;24.26;53.53
59190;BME280;50749;51.636;4.948;2023-06-26T04:41:56;101499.34;;;24.17;53.64
59190;BME280;50749;51.636;4.948;2023-06-26T04:44:22;101509.25;;;24.07;53.45
59190;BME280;50749;51.636;4.948;2023-06-26T04:46:48;101500.41;;;24.02;53.20
59190;BME280;50749;51.636;4.948;2023-06-26T04:49:13;101507.56;;;23.99;53.89
59190;BME280;50749;51.636;4.948;2023-06-26T04:51:43;101505.19;;;24.01;53.74
59190;BME280;50749;51.636;4.948;2023-06-26T04:54:10;101515.91;;;23.96;53.77
59190;BME280;50749;51.636;4.948;2023-06-26T04:56:37;101516.25;;;23.90;54.03
59190;BME280;50749;51.636;4.948;2023-06-26T04:59:05;101509.88;;;23.90;54.01
59190;BME280;50749;51.636;4.948;2023-06-26T05:01:31;101515.47;;;23.93;53.71
59190;BME280;50749;51.636;4.948;2023-06-26T05:03:58;101514.75;;;24.00;53.41
59190;BME280;50749;51.636;4.948;2023-06-26T05:06:24;101521.19;;;24.04;53.71
59190;BME280;50749;51.636;4.948;2023-06-26T05:08:50;101516.81;;;24.07;53.29
59190;BME280;50749;51.636;4.948;2023-06-26T05:11:16;101520.84;;;24.09;53.15
59190;BME280;50749;51.636;4.948;2023-06-26T05:13:42;101516.84;;;24.10;53.39
59190;BME280;50749;51.636;4.948;2023-06-26T05:16:08;101529.25;;;24.13;53.26
59190;BME280;50749;51.636;4.948;2023-06-26T05:18:35;101532.03;;;24.13;52.88
59190;BME280;50749;51.636;4.948;2023-06-26T05:21:02;101532.44;;;24.15;52.52
59190;BME280;50749;51.636;4.948;2023-06-26T05:23:30;101538.81;;;24.16;52.84
59190;BME280;50749;51.636;4.948;2023-06-26T05:25:57;101531.66;;;24.15;52.76
59190;BME280;50749;51.636;4.948;2023-06-26T05:28:23;101536.47;;;24.18;52.22
59190;BME280;50749;51.636;4.948;2023-06-26T05:30:51;101541.25;;;24.17;52.37
59190;BME280;50749;51.636;4.948;2023-06-26T05:33:18;101544.47;;;24.19;52.53
59190;BME280;50749;51.636;4.948;2023-06-26T05:35:45;101560.41;;;24.19;52.10
59190;BME280;50749;51.636;4.948;2023-06-26T05:38:13;101566.81;;;24.19;51.74
59190;BME280;50749;51.636;4.948;2023-06-26T05:40:40;101565.19;;;24.18;51.87
59190;BME280;50749;51.636;4.948;2023-06-26T05:43:06;101574.00;;;24.20;51.62
59190;BME280;50749;51.636;4.948;2023-06-26T05:45:33;101574.41;;;24.22;52.03
59190;BME280;50749;51.636;4.948;2023-06-26T05:47:58;101575.22;;;24.23;51.41
59190;BME280;50749;51.636;4.948;2023-06-26T05:50:27;101579.22;;;24.25;51.49
59190;BME280;50749;51.636;4.948;2023-06-26T05:52:53;101588.03;;;24.27;51.16
59190;BME280;50749;51.636;4.948;2023-06-26T05:55:20;101590.88;;;24.31;51.38
59190;BME280;50749;51.636;4.948;2023-06-26T05:57:46;101581.28;;;24.32;51.91
59190;BME280;50749;51.636;4.948;2023-06-26T06:00:13;101595.69;;;24.34;51.72
59190;BME280;50749;51.636;4.948;2023-06-26T06:02:42;101596.13;;;24.36;51.19
59190;BME280;50749;51.636;4.948;2023-06-26T06:05:08;101594.91;;;24.37;51.71
59190;BME280;50749;51.636;4.948;2023-06-26T06:07:34;101601.72;;;24.40;51.60
59190;BME280;50749;51.636;4.948;2023-06-26T06:10:01;101606.13;;;24.41;51.60
59190;BME280;50749;51.636;4.948;2023-06-26T06:12:28;101598.56;;;24.41;51.61
59190;BME280;50749;51.636;4.948;2023-06-26T06:14:54;101596.56;;;24.42;51.68
59190;BME280;50749;51.636;4.948;2023-06-26T06:17:20;101598.97;;;24.43;51.35
59190;BME280;50749;51.636;4.948;2023-06-26T06:19:46;101591.75;;;24.42;51.79
59190;BME280;50749;51.636;4.948;2023-06-26T06:22:12;101601.75;;;24.43;51.68
59190;BME280;50749;51.636;4.948;2023-06-26T06:24:38;101613.72;;;24.44;51.65
59190;BME280;50749;51.636;4.948;2023-06-26T06:27:03;101602.97;;;24.46;51.82
59190;BME280;50749;51.636;4.948;2023-06-26T06:29:29;101620.16;;;24.44;51.93
59190;BME280;50749;51.636;4.948;2023-06-26T06:31:56;101630.13;;;24.45;51.96
59190;BME280;50749;51.636;4.948;2023-06-26T06:34:22;101639.72;;;24.44;52.30
59190;BME280;50749;51.636;4.948;2023-06-26T06:36:48;101651.69;;;24.45;51.53
59190;BME280;50749;51.636;4.948;2023-06-26T06:39:15;101648.88;;;24.45;51.52
59190;BME280;50749;51.636;4.948;2023-06-26T06:41:41;101658.81;;;24.42;51.17
59190;BME280;50749;51.636;4.948;2023-06-26T06:44:07;101656.03;;;24.42;51.17
59190;BME280;50749;51.636;4.948;2023-06-26T06:46:33;101666.78;;;24.40;50.71
59190;BME280;50749;51.636;4.948;2023-06-26T06:48:59;101678.38;;;24.42;50.84
59190;BME280;50749;51.636;4.948;2023-06-26T06:51:25;101673.28;;;24.48;50.35
59190;BME280;50749;51.636;4.948;2023-06-26T06:53:51;101686.88;;;24.50;50.58
59190;BME280;50749;51.636;4.948;2023-06-26T06:56:17;101689.28;;;24.51;50.63
59190;BME280;50749;51.636;4.948;2023-06-26T06:58:46;101681.28;;;24.50;50.53
59190;BME280;50749;51.636;4.948;2023-06-26T07:01:13;101684.50;;;24.52;50.14
59190;BME280;50749;51.636;4.948;2023-06-26T07:03:39;101692.88;;;24.52;50.25
59190;BME280;50749;51.636;4.948;2023-06-26T07:06:05;101690.88;;;24.52;50.64
59190;BME280;50749;51.636;4.948;2023-06-26T07:08:31;101694.47;;;24.53;50.14
59190;BME280;50749;51.636;4.948;2023-06-26T07:10:57;101694.06;;;24.51;50.48
59190;BME280;50749;51.636;4.948;2023-06-26T07:13:23;101697.66;;;24.51;49.94
59190;BME280;50749;51.636;4.948;2023-06-26T07:15:49;101705.63;;;24.53;49.92
59190;BME280;50749;51.636;4.948;2023-06-26T07:18:15;101704.06;;;24.52;50.26
59190;BME280;50749;51.636;4.948;2023-06-26T07:20:41;101702.84;;;24.53;49.89
59190;BME280;50749;51.636;4.948;2023-06-26T07:23:08;101712.81;;;24.50;49.77
59190;BME280;50749;51.636;4.948;2023-06-26T07:25:34;101709.66;;;24.52;49.79
59190;BME280;50749;51.636;4.948;2023-06-26T07:28:00;101723.63;;;24.52;49.58
59190;BME280;50749;51.636;4.948;2023-06-26T07:30:25;101711.66;;;24.51;50.09
59190;BME280;50749;51.636;4.948;2023-06-26T07:32:51;101723.69;;;24.55;49.47
59190;BME280;50749;51.636;4.948;2023-06-26T07:35:17;101732.47;;;24.57;50.10
59190;BME280;50749;51.636;4.948;2023-06-26T07:37:43;101732.88;;;24.56;50.11
59190;BME280;50749;51.636;4.948;2023-06-26T07:40:09;101731.69;;;24.57;49.02
59190;BME280;50749;51.636;4.948;2023-06-26T07:42:35;101736.06;;;24.58;49.37
59190;BME280;50749;51.636;4.948;2023-06-26T07:45:01;101734.91;;;24.59;49.63
59190;BME280;50749;51.636;4.948;2023-06-26T07:47:27;101740.50;;;24.59;49.67
59190;BME280;50749;51.636;4.948;2023-06-26T07:49:54;101741.66;;;24.58;49.48
59190;BME280;50749;51.636;4.948;2023-06-26T07:52:20;101751.66;;;24.59;49.28
59190;BME280;50749;51.636;4.948;2023-06-26T07:54:46;101751.66;;;24.59;49.17
59190;BME280;50749;51.636;4.948;2023-06-26T07:57:11;101754.88;;;24.61;49.33
59190;BME280;50749;51.636;4.948;2023-06-26T07:59:38;101754.13;;;24.64;49.06
59190;BME280;50749;51.636;4.948;2023-06-26T08:02:04;101750.16;;;24.65;49.34
59190;BME280;50749;51.636;4.948;2023-06-26T08:04:30;101741.38;;;24.66;48.99
59190;BME280;50749;51.636;4.948;2023-06-26T08:07:00;101756.16;;;24.67;49.09
59190;BME280;50749;51.636;4.948;2023-06-26T08:09:28;101753.78;;;24.69;48.97
59190;BME280;50749;51.636;4.948;2023-06-26T08:11:55;101754.19;;;24.71;49.01
59190;BME280;50749;51.636;4.948;2023-06-26T08:14:21;101760.22;;;24.73;49.29
59190;BME280;50749;51.636;4.948;2023-06-26T08:16:47;101767.03;;;24.76;48.93
59190;BME280;50749;51.636;4.948;2023-06-26T08:19:14;101767.44;;;24.78;48.65
59190;BME280;50749;51.636;4.948;2023-06-26T08:21:44;101764.25;;;24.79;48.97
59190;BME280;50749;51.636;4.948;2023-06-26T08:24:10;101751.91;;;24.80;48.70
59190;BME280;50749;51.636;4.948;2023-06-26T08:26:36;101759.09;;;24.81;48.52
59190;BME280;50749;51.636;4.948;2023-06-26T08:29:03;101761.91;;;24.81;48.18
59190;BME280;50749;51.636;4.948;2023-06-26T08:31:34;101765.91;;;24.84;48.86
59190;BME280;50749;51.636;4.948;2023-06-26T08:34:01;101770.72;;;24.83;48.61
59190;BME280;50749;51.636;4.948;2023-06-26T08:36:26;101773.50;;;24.83;47.96
59190;BME280;50749;51.636;4.948;2023-06-26T08:38:52;101771.50;;;24.84;48.10
59190;BME280;50749;51.636;4.948;2023-06-26T08:41:18;101778.72;;;24.85;48.29
59190;BME280;50749;51.636;4.948;2023-06-26T08:43:44;101774.34;;;24.88;47.97
59190;BME280;50749;51.636;4.948;2023-06-26T08:46:10;101781.97;;;24.91;48.35
59190;BME280;50749;51.636;4.948;2023-06-26T08:48:36;101772.78;;;24.90;48.03
59190;BME280;50749;51.636;4.948;2023-06-26T08:51:08;101780.78;;;24.92;48.03
59190;BME280;50749;51.636;4.948;2023-06-26T08:53:52;101779.56;;;24.93;47.65
59190;BME280;50749;51.636;4.948;2023-06-26T08:56:22;101783.19;;;24.93;47.71
59190;BME280;50749;51.636;4.948;2023-06-26T08:58:49;101789.59;;;24.94;47.59
59190;BME280;50749;51.636;4.948;2023-06-26T09:01:15;101799.16;;;24.93;47.24
59190;BME280;50749;51.636;4.948;2023-06-26T09:03:41;101792.38;;;24.94;47.64
59190;BME280;50749;51.636;4.948;2023-06-26T09:06:07;101793.97;;;24.95;47.84
59190;BME280;50749;51.636;4.948;2023-06-26T09:08:34;101803.97;;;24.96;47.18
59190;BME280;50749;51.636;4.948;2023-06-26T09:11:00;101812.00;;;24.97;47.40
59190;BME280;50749;51.636;4.948;2023-06-26T09:13:28;101795.63;;;24.99;47.62
59190;BME280;50749;51.636;4.948;2023-06-26T09:15:54;101796.00;;;24.98;47.49
59190;BME280;50749;51.636;4.948;2023-06-26T09:18:21;101790.03;;;24.99;47.67
59190;BME280;50749;51.636;4.948;2023-06-26T09:20:50;101804.03;;;24.99;47.15
59190;BME280;50749;51.636;4.948;2023-06-26T09:23:16;101812.81;;;25.01;46.97
59190;BME280;50749;51.636;4.948;2023-06-26T09:25:42;101824.00;;;25.01;47.06
59190;BME280;50749;51.636;4.948;2023-06-26T09:28:08;101809.63;;;25.03;46.80
59190;BME280;50749;51.636;4.948;2023-06-26T09:30:35;101822.44;;;25.04;46.52
59190;BME280;50749;51.636;4.948;2023-06-26T09:33:17;101825.63;;;25.02;45.95
59190;BME280;50749;51.636;4.948;2023-06-26T09:35:44;101832.03;;;25.03;46.12
59190;BME280;50749;51.636;4.948;2023-06-26T09:38:11;101838.00;;;25.01;46.22
59190;BME280;50749;51.636;4.948;2023-06-26T09:40:37;101836.81;;;25.02;46.47
59190;BME280;50749;51.636;4.948;2023-06-26T09:43:08;101835.19;;;25.01;46.00
59190;BME280;50749;51.636;4.948;2023-06-26T09:45:35;101839.19;;;25.00;45.57
59190;BME280;50749;51.636;4.948;2023-06-26T09:48:04;101844.78;;;25.00;45.88
59190;BME280;50749;51.636;4.948;2023-06-26T09:50:32;101844.00;;;25.00;45.93
59190;BME280;50749;51.636;4.948;2023-06-26T09:53:10;101844.78;;;25.00;45.77
59190;BME280;50749;51.636;4.948;2023-06-26T09:55:36;101859.19;;;25.02;46.14
59190;BME280;50749;51.636;4.948;2023-06-26T09:58:03;101852.81;;;25.02;45.85
59190;BME280;50749;51.636;4.948;2023-06-26T10:00:32;101858.41;;;25.02;45.21
59190;BME280;50749;51.636;4.948;2023-06-26T10:03:01;101858.38;;;24.98;45.06
59190;BME280;50749;51.636;4.948;2023-06-26T10:05:27;101865.53;;;24.96;45.08
59190;BME280;50749;51.636;4.948;2023-06-26T10:07:54;101867.94;;;24.97;45.29
59190;BME280;50749;51.636;4.948;2023-06-26T10:10:22;101873.13;;;24.95;45.35
59190;BME280;50749;51.636;4.948;2023-06-26T10:12:51;101872.72;;;24.97;44.83
59190;BME280;50749;51.636;4.948;2023-06-26T10:15:19;101872.72;;;24.97;45.10
59190;BME280;50749;51.636;4.948;2023-06-26T10:17:46;101869.56;;;24.98;45.48
59190;BME280;50749;51.636;4.948;2023-06-26T10:20:13;101855.97;;;25.00;44.59
59190;BME280;50749;51.636;4.948;2023-06-26T10:22:44;101867.97;;;25.01;44.94
59190;BME280;50749;51.636;4.948;2023-06-26T10:25:10;101862.78;;;25.03;45.26
59190;BME280;50749;51.636;4.948;2023-06-26T10:27:41;101875.59;;;25.04;45.38
59190;BME280;50749;51.636;4.948;2023-06-26T10:30:18;101872.81;;;25.04;44.53
59190;BME280;50749;51.636;4.948;2023-06-26T10:32:46;101891.97;;;25.02;45.09
59190;BME280;50749;51.636;4.948;2023-06-26T10:35:12;101877.97;;;25.02;45.06
59190;BME280;50749;51.636;4.948;2023-06-26T10:37:46;101880.78;;;25.02;44.30
59190;BME280;50749;51.636;4.948;2023-06-26T10:40:14;101872.38;;;25.02;45.06
59190;BME280;50749;51.636;4.948;2023-06-26T10:42:40;101870.00;;;25.04;45.23
59190;BME280;50749;51.636;4.948;2023-06-26T10:45:17;101871.19;;;25.03;45.20
59190;BME280;50749;51.636;4.948;2023-06-26T10:47:46;101871.19;;;25.03;44.79
59190;BME280;50749;51.636;4.948;2023-06-26T10:50:30;101876.41;;;25.04;44.92
59190;BME280;50749;51.636;4.948;2023-06-26T10:56:03;101890.75;;;25.03;45.14
59190;BME280;50749;51.636;4.948;2023-06-26T11:01:23;101895.16;;;25.00;44.56
59190;BME280;50749;51.636;4.948;2023-06-26T11:04:05;101896.75;;;25.01;44.75
59190;BME280;50749;51.636;4.948;2023-06-26T11:06:32;101899.53;;;25.01;44.29
59190;BME280;50749;51.636;4.948;2023-06-26T11:14:19;101907.13;;;25.01;44.52
59190;BME280;50749;51.636;4.948;2023-06-26T11:16:45;101906.72;;;24.99;44.44
59190;BME280;50749;51.636;4.948;2023-06-26T11:19:11;101915.09;;;24.99;44.39
59190;BME280;50749;51.636;4.948;2023-06-26T11:21:38;101920.69;;;24.99;44.78
59190;BME280;50749;51.636;4.948;2023-06-26T11:24:06;101921.50;;;24.99;44.93
59190;BME280;50749;51.636;4.948;2023-06-26T11:26:40;101922.31;;;25.00;44.64
59190;BME280;50749;51.636;4.948;2023-06-26T11:29:08;101930.25;;;24.98;44.28
59190;BME280;50749;51.636;4.948;2023-06-26T11:31:39;101944.25;;;24.98;44.56
59190;BME280;50749;51.636;4.948;2023-06-26T11:34:10;101934.25;;;24.97;44.15
59190;BME280;50749;51.636;4.948;2023-06-26T11:36:38;101938.25;;;24.96;44.19
59190;BME280;50749;51.636;4.948;2023-06-26T11:39:05;101940.63;;;24.94;44.49
59190;BME280;50749;51.636;4.948;2023-06-26T11:41:32;101944.22;;;24.94;44.60
59190;BME280;50749;51.636;4.948;2023-06-26T11:46:28;101970.59;;;24.93;44.09
59190;BME280;50749;51.636;4.948;2023-06-26T11:48:54;101963.75;;;24.91;43.73
59190;BME280;50749;51.636;4.948;2023-06-26T11:51:20;101960.53;;;24.89;43.40
59190;BME280;50749;51.636;4.948;2023-06-26T11:53:46;101964.50;;;24.88;43.74
59190;BME280;50749;51.636;4.948;2023-06-26T11:56:16;101975.69;;;24.88;43.75
59190;BME280;50749;51.636;4.948;2023-06-26T11:58:59;101972.91;;;24.88;43.91
59190;BME280;50749;51.636;4.948;2023-06-26T12:01:39;101975.28;;;24.85;43.34
59190;BME280;50749;51.636;4.948;2023-06-26T12:04:08;101986.47;;;24.85;43.54
59190;BME280;50749;51.636;4.948;2023-06-26T12:06:35;101972.84;;;24.84;43.81
59190;BME280;50749;51.636;4.948;2023-06-26T12:09:04;101974.84;;;24.83;43.60
59190;BME280;50749;51.636;4.948;2023-06-26T12:11:32;101988.00;;;24.83;44.00
59190;BME280;50749;51.636;4.948;2023-06-26T12:13:59;101984.09;;;24.88;44.19
59190;BME280;50749;51.636;4.948;2023-06-26T12:16:27;101997.31;;;24.91;44.12
59190;BME280;50749;51.636;4.948;2023-06-26T12:19:01;101983.75;;;24.93;44.33
59190;BME280;50749;51.636;4.948;2023-06-26T12:24:09;101991.44;;;24.99;43.98
59190;BME280;50749;51.636;4.948;2023-06-26T12:26:35;101983.88;;;25.00;43.75
59190;BME280;50749;51.636;4.948;2023-06-26T12:31:28;101980.19;;;24.96;42.74
59190;BME280;50749;51.636;4.948;2023-06-26T12:33:53;101986.97;;;24.95;42.88
59190;BME280;50749;51.636;4.948;2023-06-26T12:36:19;102004.56;;;24.95;42.38
59190;BME280;50749;51.636;4.948;2023-06-26T12:38:46;101998.97;;;24.95;42.50
59190;BME280;50749;51.636;4.948;2023-06-26T12:41:12;102010.16;;;24.95;42.20
59190;BME280;50749;51.636;4.948;2023-06-26T12:43:40;102004.94;;;24.94;42.37
59190;BME280;50749;51.636;4.948;2023-06-26T12:46:06;102004.94;;;24.94;42.08
59190;BME280;50749;51.636;4.948;2023-06-26T12:48:37;101998.97;;;24.95;42.50
59190;BME280;50749;51.636;4.948;2023-06-26T12:51:10;101987.41;;;24.97;42.11
59190;BME280;50749;51.636;4.948;2023-06-26T12:53:37;101995.81;;;24.97;42.37
59190;BME280;50749;51.636;4.948;2023-06-26T12:56:05;102005.38;;;24.96;41.90
59190;BME280;50749;51.636;4.948;2023-06-26T12:58:32;102000.91;;;24.91;41.53
59190;BME280;50749;51.636;4.948;2023-06-26T13:00:57;101988.50;;;24.89;41.87
59190;BME280;50749;51.636;4.948;2023-06-26T13:03:23;101994.84;;;24.85;41.51
59190;BME280;50749;51.636;4.948;2023-06-26T13:05:49;101994.31;;;24.76;40.14
59190;BME280;50749;51.636;4.948;2023-06-26T13:08:16;102003.25;;;24.59;39.35
59190;BME280;50749;51.636;4.948;2023-06-26T13:10:44;102000.97;;;24.41;39.82
59190;BME280;50749;51.636;4.948;2023-06-26T13:13:10;101998.56;;;24.40;40.33